Time;durP1;ratioP1;P1;durP2;ratioP2;P2;SDS_P1;SDS_P2;PMS_P1;PMS_P2;Temp;Humidity;BMP_temperature;BMP_pressure;BME280_temperature;BME280_humidity;BME280_pressure;Samples;Min_cycle;Max_cycle;Signal;HPM_P1;HPM_P2
2024/01/27 00:01:59;;;;;;;29.67;6.18;;;3.70;99.90;;;;;;5041165;27;20102;-78
2024/01/27 00:04:25;;;;;;;28.77;5.78;;;3.60;99.90;;;;;;5042726;27;20045;-77
2024/01/27 00:06:51;;;;;;;27.02;5.63;;;3.70;99.90;;;;;;5126332;27;20097;-77
2024/01/27 00:09:16;;;;;;;25.15;5.68;;;3.60;99.90;;;;;;5038414;27;20109;-78
2024/01/27 00:11:42;;;;;;;28.10;5.88;;;3.60;99.90;;;;;;5039933;27;20041;-78
2024/01/27 00:14:08;;;;;;;25.05;5.72;;;3.60;99.90;;;;;;5025208;28;20048;-71
2024/01/27 00:16:34;;;;;;;32.85;6.30;;;3.60;99.90;;;;;;5033475;27;20037;-72
2024/01/27 00:19:02;;;;;;;28.88;6.15;;;3.70;99.90;;;;;;5032604;28;20402;-71
2024/01/27 00:21:31;;;;;;;30.55;6.13;;;3.60;99.90;;;;;;5018817;27;20050;-71
2024/01/27 00:24:00;;;;;;;25.30;5.70;;;3.60;99.90;;;;;;5027242;28;20608;-71
2024/01/27 00:26:27;;;;;;;32.42;6.22;;;3.60;99.90;;;;;;5031545;27;20049;-71
2024/01/27 00:28:53;;;;;;;25.52;5.63;;;3.50;99.90;;;;;;5128152;27;20141;-72
2024/01/27 00:31:19;;;;;;;24.50;5.35;;;3.60;99.90;;;;;;5031223;27;20419;-76
2024/01/27 00:33:45;;;;;;;27.67;6.55;;;3.50;99.90;;;;;;5039654;27;20067;-76
2024/01/27 00:36:11;;;;;;;23.48;5.97;;;3.50;99.90;;;;;;5021866;27;20808;-76
2024/01/27 00:38:38;;;;;;;35.25;6.55;;;3.50;99.90;;;;;;5023250;28;20407;-76
2024/01/27 00:41:04;;;;;;;25.45;5.10;;;3.50;99.90;;;;;;5054331;27;20490;-77
2024/01/27 00:43:30;;;;;;;28.00;5.68;;;3.40;99.90;;;;;;5042776;28;20053;-76
2024/01/27 00:45:56;;;;;;;27.55;6.50;;;3.40;99.90;;;;;;5014263;27;20128;-76
2024/01/27 00:48:22;;;;;;;26.92;5.70;;;3.40;99.90;;;;;;5039055;27;20108;-77
2024/01/27 00:50:48;;;;;;;22.90;5.32;;;3.50;99.90;;;;;;5007637;28;20415;-75
2024/01/27 00:53:14;;;;;;;25.98;5.78;;;3.50;99.90;;;;;;5088220;27;20045;-75
2024/01/27 00:55:39;;;;;;;26.52;5.60;;;3.50;99.90;;;;;;5045625;27;20059;-76
2024/01/27 00:58:07;;;;;;;26.02;5.35;;;3.50;99.90;;;;;;5025867;27;20752;-75
2024/01/27 01:00:32;;;;;;;22.75;6.43;;;3.50;99.90;;;;;;5048920;27;20565;-76
2024/01/27 01:02:58;;;;;;;25.98;5.60;;;3.50;99.90;;;;;;5022459;27;20079;-75
2024/01/27 01:05:24;;;;;;;21.77;5.65;;;3.50;99.90;;;;;;5034897;27;20157;-75
2024/01/27 01:07:49;;;;;;;25.33;5.90;;;3.50;99.90;;;;;;5011276;28;20131;-75
2024/01/27 01:10:15;;;;;;;20.45;5.85;;;3.40;99.90;;;;;;5015843;27;20055;-75
2024/01/27 01:12:42;;;;;;;26.15;5.55;;;3.40;99.90;;;;;;5021953;27;20041;-75
2024/01/27 01:15:08;;;;;;;22.67;5.28;;;3.40;99.90;;;;;;5030398;27;20060;-75
2024/01/27 01:17:34;;;;;;;28.40;6.07;;;3.40;99.90;;;;;;5035522;27;20496;-72
2024/01/27 01:19:59;;;;;;;23.80;6.05;;;3.40;99.90;;;;;;5046275;27;20052;-71
2024/01/27 01:22:25;;;;;;;22.00;5.07;;;3.40;99.90;;;;;;5042746;27;20089;-71
2024/01/27 01:24:51;;;;;;;20.70;4.90;;;3.40;99.90;;;;;;5027219;27;20049;-71
2024/01/27 01:27:18;;;;;;;23.73;5.60;;;3.30;99.90;;;;;;5044694;27;20063;-72
2024/01/27 01:29:44;;;;;;;24.20;5.75;;;3.30;99.90;;;;;;5013953;28;20041;-71
2024/01/27 01:32:10;;;;;;;28.63;5.70;;;3.30;99.90;;;;;;5033653;27;20101;-78
2024/01/27 01:34:36;;;;;;;21.30;4.88;;;3.30;99.90;;;;;;5041560;27;20821;-77
2024/01/27 01:37:02;;;;;;;22.65;6.15;;;3.30;99.90;;;;;;5022302;28;20037;-71
2024/01/27 01:39:28;;;;;;;21.17;5.80;;;3.30;99.90;;;;;;5034863;27;20048;-71
2024/01/27 01:41:54;;;;;;;27.70;6.07;;;3.20;99.90;;;;;;5021303;28;20525;-71
2024/01/27 01:44:21;;;;;;;26.35;6.53;;;3.20;99.90;;;;;;5044692;27;20116;-71
2024/01/27 01:46:47;;;;;;;24.63;5.13;;;3.10;99.90;;;;;;5045924;27;20041;-71
2024/01/27 01:49:13;;;;;;;23.58;5.63;;;3.20;99.90;;;;;;5129035;27;20106;-71
2024/01/27 01:51:39;;;;;;;25.13;6.32;;;3.10;99.90;;;;;;5038920;27;20041;-71
2024/01/27 01:54:06;;;;;;;24.40;5.53;;;3.20;99.90;;;;;;5031351;27;20532;-71
2024/01/27 01:56:32;;;;;;;25.35;5.70;;;3.20;99.90;;;;;;5044683;27;20041;-71
2024/01/27 01:58:58;;;;;;;23.33;5.50;;;3.20;99.90;;;;;;5024925;28;20052;-72
2024/01/27 02:01:24;;;;;;;23.23;5.93;;;3.20;99.90;;;;;;5039068;27;20050;-71
2024/01/27 02:03:56;;;;;;;22.40;5.07;;;3.10;99.90;;;;;;5043192;27;20045;-71
2024/01/27 02:06:22;;;;;;;21.05;6.05;;;3.10;99.90;;;;;;5039113;27;20440;-71
2024/01/27 02:08:47;;;;;;;25.23;5.60;;;3.10;99.90;;;;;;5038002;27;20041;-72
2024/01/27 02:11:13;;;;;;;23.38;6.18;;;3.10;99.90;;;;;;5043226;27;20148;-71
2024/01/27 02:13:39;;;;;;;22.15;6.43;;;3.10;99.90;;;;;;5043913;27;20042;-78
2024/01/27 02:16:05;;;;;;;23.52;5.53;;;3.10;99.90;;;;;;5048455;27;20132;-71
2024/01/27 02:18:31;;;;;;;23.02;5.75;;;3.10;99.90;;;;;;5019542;27;20045;-72
2024/01/27 02:20:57;;;;;;;29.83;5.97;;;3.10;99.90;;;;;;5037418;27;20704;-72
2024/01/27 02:23:23;;;;;;;20.13;4.72;;;3.10;99.90;;;;;;5030206;27;20045;-72
2024/01/27 02:25:50;;;;;;;19.20;5.28;;;3.10;99.90;;;;;;5043585;27;20538;-72
2024/01/27 02:28:16;;;;;;;27.73;6.32;;;3.10;99.90;;;;;;5043770;27;20131;-71
2024/01/27 02:30:42;;;;;;;26.90;6.05;;;3.10;99.90;;;;;;5024111;27;20037;-72
2024/01/27 02:33:08;;;;;;;25.75;5.43;;;3.00;99.90;;;;;;5032574;27;20049;-72
2024/01/27 02:35:34;;;;;;;21.63;5.28;;;3.10;99.90;;;;;;5042214;27;20331;-71
2024/01/27 02:38:02;;;;;;;28.77;6.05;;;3.10;99.90;;;;;;5036978;27;20045;-71
2024/01/27 02:40:28;;;;;;;27.80;5.65;;;3.10;99.90;;;;;;5037193;27;20045;-72
2024/01/27 02:42:54;;;;;;;28.58;6.20;;;3.00;99.90;;;;;;5034553;27;20057;-71
2024/01/27 02:45:20;;;;;;;23.80;5.80;;;3.10;99.90;;;;;;5010819;27;20041;-77
2024/01/27 02:47:46;;;;;;;27.98;6.68;;;3.00;99.90;;;;;;5045247;27;20594;-72
2024/01/27 02:50:12;;;;;;;25.10;5.40;;;3.00;99.90;;;;;;5045817;27;20094;-72
2024/01/27 02:52:37;;;;;;;23.60;6.20;;;3.00;99.90;;;;;;5043833;27;20115;-71
2024/01/27 02:55:03;;;;;;;21.17;5.65;;;3.00;99.90;;;;;;5041712;27;20077;-69
2024/01/27 02:57:29;;;;;;;29.88;5.50;;;3.00;99.90;;;;;;5044942;27;20200;-69
2024/01/27 02:59:55;;;;;;;21.63;4.75;;;3.10;99.90;;;;;;5036586;27;20056;-71
2024/01/27 03:02:21;;;;;;;21.77;4.95;;;3.00;99.90;;;;;;5043459;27;20041;-71
2024/01/27 03:04:46;;;;;;;22.05;5.05;;;3.00;99.90;;;;;;5024845;27;20144;-71
2024/01/27 03:07:12;;;;;;;20.60;5.30;;;3.00;99.90;;;;;;5036376;27;20048;-72
2024/01/27 03:09:38;;;;;;;27.15;5.47;;;3.00;99.90;;;;;;5024405;27;20041;-72
2024/01/27 03:12:04;;;;;;;24.52;4.90;;;3.00;99.90;;;;;;5040310;27;20547;-71
2024/01/27 03:14:32;;;;;;;24.45;5.60;;;3.00;99.90;;;;;;5042773;27;20130;-72
2024/01/27 03:16:58;;;;;;;24.42;5.18;;;3.00;99.90;;;;;;5033124;27;20483;-72
2024/01/27 03:19:24;;;;;;;23.52;5.35;;;3.00;99.90;;;;;;5036521;27;20045;-71
2024/01/27 03:21:53;;;;;;;24.73;4.93;;;2.90;99.90;;;;;;5048191;27;20502;-69
2024/01/27 03:24:18;;;;;;;29.05;5.43;;;3.00;99.90;;;;;;5041819;27;20103;-69
2024/01/27 03:26:44;;;;;;;24.23;5.05;;;3.00;99.90;;;;;;5035952;27;20041;-69
2024/01/27 03:29:10;;;;;;;19.98;4.60;;;3.00;99.90;;;;;;5043242;27;20053;-69
2024/01/27 03:31:36;;;;;;;22.45;5.18;;;3.00;99.90;;;;;;5038980;27;20136;-69
2024/01/27 03:34:02;;;;;;;15.52;4.88;;;2.90;99.90;;;;;;5039978;27;20595;-70
2024/01/27 03:36:28;;;;;;;21.92;4.97;;;2.90;99.90;;;;;;5030814;27;20127;-70
2024/01/27 03:38:55;;;;;;;22.52;4.25;;;2.80;99.90;;;;;;5044228;27;20139;-70
2024/01/27 03:41:21;;;;;;;19.52;4.75;;;2.90;99.90;;;;;;5041181;27;20072;-75
2024/01/27 03:43:47;;;;;;;21.73;4.50;;;2.80;99.90;;;;;;5042450;27;20045;-76
2024/01/27 03:46:13;;;;;;;25.40;5.30;;;2.80;99.90;;;;;;5023762;27;20049;-69
2024/01/27 03:48:38;;;;;;;22.60;5.28;;;2.70;99.90;;;;;;5037890;27;20033;-71
2024/01/27 03:51:05;;;;;;;22.52;5.18;;;2.80;99.90;;;;;;5040520;27;20052;-71
2024/01/27 03:53:31;;;;;;;24.33;4.88;;;2.80;99.90;;;;;;5123019;27;20458;-72
2024/01/27 03:55:59;;;;;;;19.52;4.47;;;2.80;99.90;;;;;;5018474;28;20064;-71
2024/01/27 03:58:27;;;;;;;21.77;5.47;;;2.80;99.90;;;;;;5043051;27;20095;-71
2024/01/27 04:00:53;;;;;;;17.42;4.53;;;2.80;99.90;;;;;;5037398;27;20037;-71
2024/01/27 04:03:19;;;;;;;29.70;5.57;;;2.70;99.90;;;;;;5047186;27;20048;-71
2024/01/27 04:05:45;;;;;;;24.95;5.20;;;2.70;99.90;;;;;;5043270;27;20043;-71
2024/01/27 04:08:10;;;;;;;27.25;5.22;;;2.70;99.90;;;;;;5038711;27;20068;-72
2024/01/27 04:10:37;;;;;;;27.15;5.47;;;2.70;99.90;;;;;;5025388;28;20092;-72
2024/01/27 04:13:03;;;;;;;19.73;4.07;;;2.70;99.90;;;;;;5035467;27;20536;-72
2024/01/27 04:15:28;;;;;;;22.83;4.75;;;2.70;99.90;;;;;;5040946;27;20040;-72
2024/01/27 04:17:55;;;;;;;23.80;5.05;;;2.70;99.90;;;;;;5042439;27;20176;-71
2024/01/27 04:20:21;;;;;;;25.35;5.43;;;2.70;99.90;;;;;;5043561;27;20087;-71
2024/01/27 04:22:47;;;;;;;24.38;6.22;;;2.70;99.90;;;;;;5020050;27;20073;-72
2024/01/27 04:25:12;;;;;;;26.08;5.75;;;2.70;99.90;;;;;;5040320;27;20484;-72
2024/01/27 04:27:42;;;;;;;17.33;5.18;;;2.70;99.90;;;;;;5039379;27;20410;-71
2024/01/27 04:30:08;;;;;;;24.83;6.15;;;2.70;99.90;;;;;;5036296;27;20053;-72
2024/01/27 04:32:35;;;;;;;21.85;5.53;;;2.70;99.90;;;;;;5037126;27;20041;-72
2024/01/27 04:35:01;;;;;;;24.98;5.50;;;2.70;99.90;;;;;;5046016;27;20041;-72
2024/01/27 04:37:27;;;;;;;26.10;5.65;;;2.70;99.90;;;;;;5026944;27;20109;-72
2024/01/27 04:39:53;;;;;;;21.73;5.82;;;2.70;99.90;;;;;;5031086;28;20128;-71
2024/01/27 04:42:18;;;;;;;24.50;6.43;;;2.70;99.90;;;;;;5024417;27;20136;-72
2024/01/27 04:44:44;;;;;;;25.02;6.40;;;2.70;99.90;;;;;;5037962;27;20033;-71
2024/01/27 04:47:10;;;;;;;26.25;6.68;;;2.70;99.90;;;;;;5040841;27;20044;-71
2024/01/27 04:49:35;;;;;;;22.15;5.72;;;2.60;99.90;;;;;;5053946;27;20031;-72
2024/01/27 04:52:01;;;;;;;25.65;5.90;;;2.60;99.90;;;;;;5037128;27;20113;-71
2024/01/27 04:54:27;;;;;;;24.20;5.68;;;2.60;99.90;;;;;;5040276;27;20037;-72
2024/01/27 04:56:53;;;;;;;20.75;5.70;;;2.60;99.90;;;;;;5024457;28;20055;-72
2024/01/27 04:59:19;;;;;;;22.65;5.90;;;2.50;99.90;;;;;;5139836;27;20090;-71
2024/01/27 05:01:45;;;;;;;25.30;6.57;;;2.50;99.90;;;;;;5035907;27;20045;-72
2024/01/27 05:04:11;;;;;;;19.33;5.63;;;2.50;99.90;;;;;;5014945;27;20144;-72
2024/01/27 05:06:38;;;;;;;31.67;7.38;;;2.50;99.90;;;;;;5025591;28;20053;-71
2024/01/27 05:09:05;;;;;;;26.27;6.28;;;2.50;99.90;;;;;;5021235;27;20152;-70
2024/01/27 05:11:32;;;;;;;22.13;6.30;;;2.50;99.90;;;;;;5023064;28;20038;-70
2024/01/27 05:13:59;;;;;;;26.30;6.32;;;2.50;99.90;;;;;;5033483;27;20038;-70
2024/01/27 05:16:24;;;;;;;26.38;7.00;;;2.50;99.90;;;;;;5028944;27;20042;-72
2024/01/27 05:18:50;;;;;;;23.48;6.93;;;2.50;99.90;;;;;;5046422;27;20057;-70
2024/01/27 05:21:16;;;;;;;18.45;5.45;;;2.50;99.90;;;;;;5034433;27;20048;-70
2024/01/27 05:23:42;;;;;;;22.63;5.93;;;2.40;99.90;;;;;;5028337;27;20045;-70
2024/01/27 05:26:10;;;;;;;28.80;6.18;;;2.40;99.90;;;;;;5039116;27;20475;-70
2024/01/27 05:28:36;;;;;;;19.70;5.38;;;2.40;99.90;;;;;;5036203;27;20059;-70
2024/01/27 05:31:02;;;;;;;24.45;6.30;;;2.40;99.90;;;;;;5032693;27;20053;-70
2024/01/27 05:33:28;;;;;;;24.58;6.05;;;2.30;99.90;;;;;;5040956;27;20056;-70
2024/01/27 05:35:56;;;;;;;22.70;6.55;;;2.30;99.90;;;;;;5035087;27;20137;-69
2024/01/27 05:38:22;;;;;;;30.98;6.47;;;2.30;99.90;;;;;;5048770;27;20053;-70
2024/01/27 05:40:50;;;;;;;29.48;6.20;;;2.30;99.90;;;;;;5040524;27;20052;-69
2024/01/27 05:43:16;;;;;;;25.05;6.80;;;2.30;99.90;;;;;;5040537;27;20165;-69
2024/01/27 05:45:42;;;;;;;21.75;6.07;;;2.30;99.90;;;;;;5037364;27;20079;-70
2024/01/27 05:48:07;;;;;;;30.38;6.50;;;2.30;99.90;;;;;;5038117;27;20049;-69
2024/01/27 05:50:35;;;;;;;20.83;5.70;;;2.30;99.90;;;;;;5032237;27;20049;-69
2024/01/27 05:53:01;;;;;;;25.25;5.28;;;2.30;99.90;;;;;;5147342;27;20542;-70
2024/01/27 05:55:27;;;;;;;25.08;6.40;;;2.30;99.90;;;;;;5032550;27;20045;-69
2024/01/27 05:57:52;;;;;;;27.77;7.25;;;2.40;99.90;;;;;;5021928;27;20045;-70
2024/01/27 06:00:18;;;;;;;25.23;6.70;;;2.30;99.90;;;;;;5045808;27;20478;-70
2024/01/27 06:02:44;;;;;;;29.13;6.65;;;2.30;99.90;;;;;;5030775;27;20526;-69
2024/01/27 06:05:10;;;;;;;19.73;5.30;;;2.30;99.90;;;;;;5026433;28;20049;-69
2024/01/27 06:07:38;;;;;;;23.55;6.20;;;2.30;99.90;;;;;;5118948;27;20041;-69
2024/01/27 06:10:06;;;;;;;26.38;6.15;;;2.30;99.90;;;;;;5026034;27;20566;-70
2024/01/27 06:12:35;;;;;;;31.50;6.93;;;2.30;99.90;;;;;;5030421;27;20050;-70
2024/01/27 06:15:01;;;;;;;29.77;7.55;;;2.30;99.90;;;;;;5035203;27;20475;-69
2024/01/27 06:17:27;;;;;;;22.13;7.10;;;2.30;99.90;;;;;;5038548;27;20050;-70
2024/01/27 06:19:52;;;;;;;32.00;7.97;;;2.30;99.90;;;;;;5025104;27;20502;-70
2024/01/27 06:22:18;;;;;;;27.92;7.68;;;2.30;99.90;;;;;;5027963;28;20048;-69
2024/01/27 06:24:44;;;;;;;23.25;7.57;;;2.30;99.90;;;;;;5031723;27;20049;-69
2024/01/27 06:27:11;;;;;;;35.90;8.95;;;2.40;99.90;;;;;;5044481;28;20052;-69
2024/01/27 06:29:37;;;;;;;32.00;8.90;;;2.40;99.90;;;;;;5025049;27;20053;-70
2024/01/27 06:32:03;;;;;;;24.90;7.95;;;2.50;99.90;;;;;;5037650;28;20071;-70
2024/01/27 06:34:29;;;;;;;28.90;9.38;;;2.40;99.90;;;;;;5038624;27;20057;-70
2024/01/27 06:36:55;;;;;;;27.63;9.32;;;2.40;99.90;;;;;;5041320;27;20060;-70
2024/01/27 06:39:21;;;;;;;28.50;9.68;;;2.40;99.90;;;;;;5031546;27;20057;-70
2024/01/27 06:41:47;;;;;;;37.03;10.32;;;2.40;99.90;;;;;;5042915;27;20044;-70
2024/01/27 06:44:13;;;;;;;25.23;10.00;;;2.40;99.90;;;;;;5059068;27;20077;-69
2024/01/27 06:46:39;;;;;;;28.20;10.63;;;2.40;99.90;;;;;;5023301;27;20045;-70
2024/01/27 06:49:04;;;;;;;26.85;9.73;;;2.40;99.90;;;;;;5034775;27;20057;-70
2024/01/27 06:51:30;;;;;;;35.10;11.35;;;2.40;99.90;;;;;;5044889;27;20037;-70
2024/01/27 06:53:56;;;;;;;30.60;10.48;;;2.40;99.90;;;;;;5027398;27;20064;-70
2024/01/27 06:56:22;;;;;;;36.33;12.05;;;2.40;99.90;;;;;;5036469;28;20419;-70
2024/01/27 06:58:48;;;;;;;33.03;11.70;;;2.40;99.90;;;;;;5041411;27;20094;-70
2024/01/27 07:01:13;;;;;;;26.17;10.77;;;2.40;99.90;;;;;;5039782;27;20045;-70
2024/01/27 07:03:40;;;;;;;28.17;10.35;;;2.30;99.90;;;;;;5025425;27;20122;-70
2024/01/27 07:06:06;;;;;;;28.15;10.25;;;2.30;99.90;;;;;;5029973;27;20050;-76
2024/01/27 07:08:32;;;;;;;28.42;12.82;;;2.30;99.90;;;;;;5021168;27;20622;-70
2024/01/27 07:10:58;;;;;;;22.20;11.43;;;2.30;99.90;;;;;;5025120;27;20046;-70
2024/01/27 07:13:24;;;;;;;27.88;11.50;;;2.30;99.90;;;;;;5028196;27;20118;-70
2024/01/27 07:15:50;;;;;;;29.27;12.35;;;2.20;99.90;;;;;;5037896;27;20041;-70
2024/01/27 07:18:19;;;;;;;26.92;14.38;;;2.30;99.90;;;;;;5025943;27;20054;-70
2024/01/27 07:20:45;;;;;;;30.55;13.38;;;2.20;99.90;;;;;;5018894;28;20116;-70
2024/01/27 07:23:11;;;;;;;32.38;13.93;;;2.20;99.90;;;;;;5045244;27;20563;-70
2024/01/27 07:25:36;;;;;;;26.85;14.70;;;2.30;99.90;;;;;;5055996;27;20060;-70
2024/01/27 07:28:02;;;;;;;31.35;17.48;;;2.10;99.90;;;;;;5026840;28;20084;-70
2024/01/27 07:30:29;;;;;;;29.25;15.98;;;2.10;99.90;;;;;;5013602;28;20045;-70
2024/01/27 07:32:55;;;;;;;31.92;16.17;;;2.10;99.90;;;;;;5021342;28;20045;-70
2024/01/27 07:35:23;;;;;;;36.13;18.35;;;2.00;99.90;;;;;;5027075;27;20037;-70
2024/01/27 07:37:49;;;;;;;26.33;16.70;;;2.00;99.90;;;;;;5033925;27;20573;-70
2024/01/27 07:40:15;;;;;;;35.60;19.40;;;2.00;99.90;;;;;;5039731;27;20131;-70
2024/01/27 07:42:42;;;;;;;36.65;18.92;;;2.00;99.90;;;;;;5034527;27;20052;-70
2024/01/27 07:45:10;;;;;;;32.63;17.60;;;2.00;99.90;;;;;;5036173;27;20080;-70
2024/01/27 07:47:36;;;;;;;33.35;18.85;;;2.00;99.90;;;;;;5046312;27;20045;-70
2024/01/27 07:50:02;;;;;;;38.13;20.75;;;2.00;99.90;;;;;;5047905;27;20048;-70
2024/01/27 07:52:28;;;;;;;32.10;20.77;;;2.10;99.90;;;;;;5036072;27;20092;-70
2024/01/27 07:54:54;;;;;;;35.17;20.08;;;2.10;99.90;;;;;;5024322;27;20069;-70
2024/01/27 07:57:20;;;;;;;38.85;22.67;;;2.10;99.90;;;;;;5024339;28;20033;-70
2024/01/27 07:59:46;;;;;;;33.78;20.60;;;2.10;99.90;;;;;;5038308;27;20483;-70
2024/01/27 08:02:12;;;;;;;39.75;23.00;;;2.10;99.90;;;;;;5040165;27;20073;-70
2024/01/27 08:04:38;;;;;;;44.00;24.65;;;2.20;99.90;;;;;;5034054;27;20080;-70
2024/01/27 08:07:09;;;;;;;41.28;25.02;;;2.20;99.90;;;;;;5040869;27;20049;-70
2024/01/27 08:09:36;;;;;;;32.03;22.40;;;2.20;99.90;;;;;;5037258;27;20056;-70
2024/01/27 08:12:02;;;;;;;36.35;21.38;;;2.20;99.90;;;;;;5025415;28;20041;-70
2024/01/27 08:14:29;;;;;;;32.58;21.88;;;2.20;99.90;;;;;;5035909;27;20132;-70
2024/01/27 08:16:59;;;;;;;44.55;21.42;;;2.20;99.90;;;;;;5045831;27;20514;-70
2024/01/27 08:19:25;;;;;;;42.85;20.40;;;2.30;99.90;;;;;;5030554;27;20055;-70
2024/01/27 08:21:51;;;;;;;37.75;20.30;;;2.30;99.90;;;;;;5039272;27;20040;-70
2024/01/27 08:24:16;;;;;;;32.42;19.83;;;2.30;99.90;;;;;;5040189;27;20106;-70
2024/01/27 08:26:42;;;;;;;39.95;19.75;;;2.30;99.90;;;;;;5050314;27;20066;-70
2024/01/27 08:29:09;;;;;;;43.88;20.42;;;2.30;99.90;;;;;;5039066;27;20056;-70
2024/01/27 08:31:34;;;;;;;34.92;19.75;;;2.50;99.90;;;;;;5037020;27;20918;-70
2024/01/27 08:34:01;;;;;;;33.25;19.73;;;2.40;99.90;;;;;;5046284;27;20041;-70
2024/01/27 08:36:26;;;;;;;35.60;18.73;;;2.50;99.90;;;;;;5042616;27;20045;-70
2024/01/27 08:38:52;;;;;;;35.65;19.33;;;2.50;99.90;;;;;;5032438;27;20052;-70
2024/01/27 08:41:18;;;;;;;29.73;19.33;;;2.50;99.90;;;;;;5033180;27;20411;-70
2024/01/27 08:43:44;;;;;;;34.13;20.08;;;2.60;99.90;;;;;;5043195;28;20559;-70
2024/01/27 08:46:11;;;;;;;37.88;20.40;;;2.60;99.90;;;;;;5037897;27;20049;-70
2024/01/27 08:48:38;;;;;;;32.67;18.60;;;2.60;99.90;;;;;;5036118;27;20049;-70
2024/01/27 08:51:04;;;;;;;36.45;20.42;;;2.60;99.90;;;;;;5031883;27;20041;-70
2024/01/27 08:53:33;;;;;;;33.10;19.13;;;2.70;99.90;;;;;;5034526;27;20056;-70
2024/01/27 08:55:58;;;;;;;37.42;19.08;;;2.70;99.90;;;;;;5033414;27;20398;-71
2024/01/27 08:58:24;;;;;;;28.85;17.25;;;2.70;99.90;;;;;;5035678;27;20045;-70
2024/01/27 09:00:50;;;;;;;35.80;17.20;;;2.80;99.90;;;;;;5031481;27;20106;-70
2024/01/27 09:03:16;;;;;;;36.67;19.13;;;2.80;99.90;;;;;;5032493;27;20110;-70
2024/01/27 09:05:44;;;;;;;28.30;17.33;;;2.90;99.90;;;;;;5040713;27;20121;-69
2024/01/27 09:08:10;;;;;;;28.40;17.13;;;2.90;99.90;;;;;;5026295;27;20076;-70
2024/01/27 09:10:35;;;;;;;30.58;19.00;;;2.90;99.90;;;;;;5037258;27;20079;-75
2024/01/27 09:13:02;;;;;;;35.60;19.48;;;2.90;99.90;;;;;;5041610;27;20040;-70
2024/01/27 09:15:28;;;;;;;32.25;19.30;;;3.00;99.90;;;;;;5044000;27;20045;-70
2024/01/27 09:17:53;;;;;;;31.58;18.98;;;3.10;99.90;;;;;;5029528;27;20090;-70
2024/01/27 09:20:19;;;;;;;45.40;20.23;;;3.10;99.90;;;;;;5040606;27;20052;-70
2024/01/27 09:22:47;;;;;;;33.83;19.08;;;3.20;99.90;;;;;;5035968;27;20544;-70
2024/01/27 09:25:13;;;;;;;35.85;19.98;;;3.20;99.90;;;;;;5018518;27;20105;-75
2024/01/27 09:27:39;;;;;;;35.28;20.05;;;3.30;99.90;;;;;;5026949;28;20044;-75
2024/01/27 09:30:06;;;;;;;34.72;18.90;;;3.40;99.90;;;;;;5035247;27;20129;-77
2024/01/27 09:32:32;;;;;;;36.85;19.75;;;3.40;99.90;;;;;;5035105;27;20084;-75
2024/01/27 09:35:01;;;;;;;36.45;19.88;;;3.40;99.90;;;;;;5023876;27;20076;-75
2024/01/27 09:37:26;;;;;;;35.08;19.95;;;3.50;99.90;;;;;;5039631;27;20403;-69
2024/01/27 09:39:52;;;;;;;33.83;19.92;;;3.60;99.90;;;;;;5122624;27;20056;-69
2024/01/27 09:42:20;;;;;;;33.72;19.92;;;3.60;99.90;;;;;;5030034;27;20502;-70
2024/01/27 09:44:49;;;;;;;33.85;19.58;;;3.70;99.90;;;;;;5032782;27;20076;-70
2024/01/27 09:47:19;;;;;;;33.40;19.85;;;3.70;99.90;;;;;;5048542;27;20044;-70
2024/01/27 09:49:46;;;;;;;34.42;20.20;;;3.80;99.90;;;;;;5035767;27;20037;-71
2024/01/27 09:52:11;;;;;;;34.78;19.77;;;3.80;99.90;;;;;;5053273;27;20045;-70
2024/01/27 09:54:37;;;;;;;34.90;19.55;;;3.90;99.90;;;;;;5037661;27;20048;-70
2024/01/27 09:57:12;;;;;;;32.20;19.50;;;4.00;99.90;;;;;;5021847;28;20048;-70
2024/01/27 09:59:44;;;;;;;32.85;19.73;;;4.00;99.90;;;;;;5021328;28;20046;-70
2024/01/27 10:02:14;;;;;;;36.55;19.33;;;4.00;99.90;;;;;;5118940;27;20152;-70
2024/01/27 10:04:41;;;;;;;;;;;4.10;99.90;;;;;;5044422;27;20085;-70
2024/01/27 10:07:06;;;;;;;36.33;19.55;;;4.20;99.90;;;;;;5148452;27;19921;-70
2024/01/27 10:09:32;;;;;;;30.33;19.50;;;4.20;99.90;;;;;;5037371;27;20106;-70
2024/01/27 10:12:00;;;;;;;31.23;18.55;;;4.40;99.90;;;;;;5025938;27;20510;-70
2024/01/27 10:14:37;;;;;;;31.17;17.50;;;4.40;99.90;;;;;;5091609;27;20053;-70
2024/01/27 10:17:03;;;;;;;33.70;17.67;;;4.50;99.90;;;;;;5023242;27;20045;-70
2024/01/27 10:19:28;;;;;;;34.17;18.65;;;4.50;99.90;;;;;;5039346;27;20052;-70
2024/01/27 10:22:04;;;;;;;33.92;17.92;;;4.60;99.90;;;;;;5027493;27;20029;-70
2024/01/27 10:24:32;;;;;;;27.75;16.02;;;4.70;99.90;;;;;;5027138;27;20116;-70
2024/01/27 10:27:00;;;;;;;29.50;16.20;;;4.80;99.90;;;;;;5040932;27;20048;-70
2024/01/27 10:29:26;;;;;;;28.90;16.85;;;4.80;99.90;;;;;;5025979;28;20063;-70
2024/01/27 10:31:52;;;;;;;33.83;17.45;;;4.90;99.90;;;;;;5047489;27;20045;-70
2024/01/27 10:34:20;;;;;;;36.28;17.98;;;5.00;99.90;;;;;;5031211;27;20407;-70
2024/01/27 10:36:46;;;;;;;27.33;16.08;;;5.10;99.90;;;;;;5036614;27;20117;-70
2024/01/27 10:39:22;;;;;;;33.00;17.08;;;5.20;99.90;;;;;;5037290;27;20073;-70
2024/01/27 10:41:49;;;;;;;28.95;15.43;;;5.20;99.90;;;;;;5033806;27;20045;-70
2024/01/27 10:44:16;;;;;;;26.67;15.70;;;5.30;99.90;;;;;;5033134;27;20500;-70
2024/01/27 10:46:47;;;;;;;24.88;14.25;;;5.30;99.90;;;;;;5042555;27;20045;-70
2024/01/27 10:49:17;;;;;;;26.25;13.63;;;5.50;99.90;;;;;;5032750;27;20121;-70
2024/01/27 10:51:45;;;;;;;25.65;14.75;;;5.50;99.90;;;;;;5034972;27;20041;-70
2024/01/27 10:54:15;;;;;;;29.85;13.93;;;5.60;99.90;;;;;;5039745;27;20508;-70
2024/01/27 10:56:43;;;;;;;23.30;13.13;;;5.60;99.90;;;;;;5036992;27;20060;-69
2024/01/27 10:59:10;;;;;;;23.48;11.93;;;5.80;99.90;;;;;;5036204;27;20415;-69
2024/01/27 11:01:39;;;;;;;27.60;13.50;;;5.80;99.90;;;;;;5031299;27;20098;-70
2024/01/27 11:04:10;;;;;;;24.85;12.13;;;5.90;99.90;;;;;;5031463;27;20066;-70
2024/01/27 11:06:37;;;;;;;27.17;12.93;;;6.00;99.90;;;;;;5037607;27;20661;-75
2024/01/27 11:09:05;;;;;;;29.10;11.75;;;6.00;99.90;;;;;;5033504;28;20053;-76
2024/01/27 11:11:31;;;;;;;32.58;11.65;;;6.10;99.90;;;;;;5025955;27;20057;-70
2024/01/27 11:13:58;;;;;;;22.23;11.25;;;6.20;99.90;;;;;;5029465;27;20124;-70
2024/01/27 11:16:24;;;;;;;21.25;10.23;;;6.30;99.90;;;;;;5039849;27;20049;-71
2024/01/27 11:18:51;;;;;;;23.48;10.68;;;6.30;99.90;;;;;;5037036;27;20042;-71
2024/01/27 11:21:17;;;;;;;27.42;10.63;;;6.40;99.90;;;;;;5017801;28;20106;-72
2024/01/27 11:23:44;;;;;;;26.23;9.60;;;6.50;99.90;;;;;;5025008;27;20045;-71
2024/01/27 11:26:14;;;;;;;19.95;8.25;;;6.60;99.90;;;;;;5042928;27;20037;-72
2024/01/27 11:28:40;;;;;;;21.92;9.65;;;6.60;99.90;;;;;;5034536;27;20045;-72
2024/01/27 11:31:07;;;;;;;23.73;8.50;;;6.70;99.90;;;;;;5052956;27;20052;-71
2024/01/27 11:33:33;;;;;;;21.83;8.55;;;6.70;99.90;;;;;;5037544;27;20489;-71
2024/01/27 11:36:04;;;;;;;24.75;9.05;;;6.80;99.90;;;;;;5050386;27;20498;-71
2024/01/27 11:38:31;;;;;;;20.45;8.60;;;6.80;99.90;;;;;;5043587;27;20059;-72
2024/01/27 11:40:57;;;;;;;22.30;8.77;;;6.90;99.90;;;;;;5031360;27;20049;-78
2024/01/27 11:43:23;;;;;;;19.65;8.18;;;7.00;99.90;;;;;;5026166;28;20049;-78
2024/01/27 11:45:59;;;;;;;20.20;7.82;;;6.90;99.90;;;;;;5027578;28;20068;-78
2024/01/27 11:48:25;;;;;;;22.10;9.10;;;7.00;99.90;;;;;;5030575;27;20055;-72
2024/01/27 11:51:05;;;;;;;21.33;8.43;;;7.00;99.90;;;;;;5025364;27;20405;-73
2024/01/27 11:53:31;;;;;;;20.75;8.02;;;7.00;99.90;;;;;;5044770;27;20048;-72
2024/01/27 11:55:59;;;;;;;16.88;8.20;;;7.00;99.90;;;;;;5017142;28;20439;-72
2024/01/27 11:58:28;;;;;;;21.88;8.23;;;7.10;99.90;;;;;;5031833;27;20064;-72
2024/01/27 12:00:54;;;;;;;23.48;8.80;;;7.10;99.90;;;;;;5033648;27;20120;-72
2024/01/27 12:03:20;;;;;;;20.30;8.38;;;7.10;99.90;;;;;;5023132;27;20057;-72
2024/01/27 12:05:46;;;;;;;24.15;9.35;;;7.20;99.90;;;;;;5066371;27;20041;-72
2024/01/27 12:08:11;;;;;;;18.63;8.38;;;7.20;99.90;;;;;;5041585;27;20090;-72
2024/01/27 12:10:37;;;;;;;26.58;8.35;;;7.20;99.90;;;;;;5032786;27;20045;-72
2024/01/27 12:13:03;;;;;;;24.83;9.00;;;7.30;99.90;;;;;;5039784;27;20448;-72
2024/01/27 12:15:29;;;;;;;20.23;8.48;;;7.30;99.90;;;;;;5028355;27;20041;-72
2024/01/27 12:17:55;;;;;;;23.73;9.32;;;7.40;99.90;;;;;;5031172;27;20037;-72
2024/01/27 12:20:23;;;;;;;19.83;8.63;;;7.40;99.90;;;;;;5043689;27;20060;-72
2024/01/27 12:22:50;;;;;;;26.23;9.32;;;7.40;99.90;;;;;;5025756;28;20518;-72
2024/01/27 12:25:17;;;;;;;27.65;8.57;;;7.40;99.90;;;;;;5022197;27;20049;-72
2024/01/27 12:27:43;;;;;;;21.98;9.30;;;7.40;99.90;;;;;;5027782;27;20124;-72
2024/01/27 12:30:10;;;;;;;21.63;8.85;;;7.40;99.90;;;;;;5036488;27;20052;-72
2024/01/27 12:32:36;;;;;;;21.05;8.90;;;7.40;99.90;;;;;;5026649;28;20055;-72
2024/01/27 12:35:08;;;;;;;23.58;9.48;;;7.50;99.90;;;;;;5038173;27;20119;-72
2024/01/27 12:37:35;;;;;;;19.08;8.05;;;7.50;99.90;;;;;;5037889;27;20380;-72
2024/01/27 12:40:16;;;;;;;23.50;9.05;;;7.50;99.90;;;;;;5037600;27;20045;-72